sensor_id;sensor_type;location;lat;lon;timestamp;P1;durP1;ratioP1;P2;durP2;ratioP2
1026;SDS011;502;48.746;9.214;2023-09-08T00:00:28;6.83;;;6.23;;
1026;SDS011;502;48.746;9.214;2023-09-08T00:02:55;7.30;;;6.53;;
1026;SDS011;502;48.746;9.214;2023-09-08T00:05:21;6.67;;;6.07;;
1026;SDS011;502;48.746;9.214;2023-09-08T00:07:48;8.07;;;7.00;;
1026;SDS011;502;48.746;9.214;2023-09-08T00:10:14;7.10;;;6.40;;
1026;SDS011;502;48.746;9.214;2023-09-08T00:12:41;8.10;;;6.53;;
1026;SDS011;502;48.746;9.214;2023-09-08T00:15:10;8.07;;;7.33;;
1026;SDS011;502;48.746;9.214;2023-09-08T00:17:37;9.43;;;6.50;;
1026;SDS011;502;48.746;9.214;2023-09-08T00:20:05;7.80;;;7.00;;
1026;SDS011;502;48.746;9.214;2023-09-08T00:22:34;7.30;;;6.60;;
1026;SDS011;502;48.746;9.214;2023-09-08T00:25:01;8.23;;;6.13;;
1026;SDS011;502;48.746;9.214;2023-09-08T00:27:29;7.50;;;6.80;;
1026;SDS011;502;48.746;9.214;2023-09-08T00:29:56;8.43;;;6.10;;
1026;SDS011;502;48.746;9.214;2023-09-08T00:32:24;7.50;;;6.70;;
1026;SDS011;502;48.746;9.214;2023-09-08T00:34:50;10.83;;;7.40;;
1026;SDS011;502;48.746;9.214;2023-09-08T00:37:17;7.03;;;6.33;;
1026;SDS011;502;48.746;9.214;2023-09-08T00:39:43;8.23;;;6.80;;
1026;SDS011;502;48.746;9.214;2023-09-08T00:42:10;8.50;;;7.70;;
1026;SDS011;502;48.746;9.214;2023-09-08T00:44:37;8.37;;;7.57;;
1026;SDS011;502;48.746;9.214;2023-09-08T00:47:03;7.80;;;7.00;;
1026;SDS011;502;48.746;9.214;2023-09-08T00:49:32;8.40;;;7.50;;
1026;SDS011;502;48.746;9.214;2023-09-08T00:51:58;8.80;;;7.30;;
1026;SDS011;502;48.746;9.214;2023-09-08T00:54:27;7.70;;;7.00;;
1026;SDS011;502;48.746;9.214;2023-09-08T00:56:55;8.40;;;7.23;;
1026;SDS011;502;48.746;9.214;2023-09-08T00:59:22;8.10;;;6.87;;
1026;SDS011;502;48.746;9.214;2023-09-08T01:01:50;7.80;;;7.10;;
1026;SDS011;502;48.746;9.214;2023-09-08T01:04:16;9.90;;;7.80;;
1026;SDS011;502;48.746;9.214;2023-09-08T01:06:45;8.57;;;7.63;;
1026;SDS011;502;48.746;9.214;2023-09-08T01:09:12;9.10;;;6.80;;
1026;SDS011;502;48.746;9.214;2023-09-08T01:11:39;9.97;;;7.70;;
1026;SDS011;502;48.746;9.214;2023-09-08T01:14:05;7.90;;;7.10;;
1026;SDS011;502;48.746;9.214;2023-09-08T01:16:35;7.57;;;6.87;;
1026;SDS011;502;48.746;9.214;2023-09-08T01:19:02;7.63;;;6.90;;
1026;SDS011;502;48.746;9.214;2023-09-08T01:21:39;7.33;;;6.63;;
1026;SDS011;502;48.746;9.214;2023-09-08T01:24:33;7.70;;;6.87;;
1026;SDS011;502;48.746;9.214;2023-09-08T01:27:07;9.37;;;7.80;;
1026;SDS011;502;48.746;9.214;2023-09-08T01:29:35;8.50;;;7.60;;
1026;SDS011;502;48.746;9.214;2023-09-08T01:32:04;7.27;;;6.57;;
1026;SDS011;502;48.746;9.214;2023-09-08T01:34:30;7.53;;;6.73;;
1026;SDS011;502;48.746;9.214;2023-09-08T01:36:58;8.03;;;7.20;;
1026;SDS011;502;48.746;9.214;2023-09-08T01:39:28;8.63;;;7.23;;
1026;SDS011;502;48.746;9.214;2023-09-08T01:41:54;9.63;;;7.70;;
1026;SDS011;502;48.746;9.214;2023-09-08T01:44:22;7.47;;;6.67;;
1026;SDS011;502;48.746;9.214;2023-09-08T01:46:49;9.20;;;6.97;;
1026;SDS011;502;48.746;9.214;2023-09-08T01:49:21;8.40;;;7.60;;
1026;SDS011;502;48.746;9.214;2023-09-08T01:51:48;8.07;;;7.27;;
1026;SDS011;502;48.746;9.214;2023-09-08T01:54:15;8.27;;;7.43;;
1026;SDS011;502;48.746;9.214;2023-09-08T01:56:42;8.10;;;7.33;;
1026;SDS011;502;48.746;9.214;2023-09-08T01:59:08;8.63;;;7.83;;
1026;SDS011;502;48.746;9.214;2023-09-08T02:01:36;13.43;;;7.30;;
1026;SDS011;502;48.746;9.214;2023-09-08T02:04:04;8.70;;;7.20;;
1026;SDS011;502;48.746;9.214;2023-09-08T02:06:31;8.10;;;7.30;;
1026;SDS011;502;48.746;9.214;2023-09-08T02:08:57;8.07;;;6.70;;
1026;SDS011;502;48.746;9.214;2023-09-08T02:11:24;8.50;;;7.70;;
1026;SDS011;502;48.746;9.214;2023-09-08T02:13:51;11.87;;;7.10;;
1026;SDS011;502;48.746;9.214;2023-09-08T02:16:19;9.80;;;7.70;;
1026;SDS011;502;48.746;9.214;2023-09-08T02:18:51;8.23;;;7.43;;
1026;SDS011;502;48.746;9.214;2023-09-08T02:21:17;8.10;;;7.30;;
1026;SDS011;502;48.746;9.214;2023-09-08T02:23:44;7.90;;;7.10;;
1026;SDS011;502;48.746;9.214;2023-09-08T02:26:10;9.13;;;7.63;;
1026;SDS011;502;48.746;9.214;2023-09-08T02:28:37;8.57;;;7.77;;
1026;SDS011;502;48.746;9.214;2023-09-08T02:31:03;8.20;;;7.40;;
1026;SDS011;502;48.746;9.214;2023-09-08T02:33:30;8.00;;;7.20;;
1026;SDS011;502;48.746;9.214;2023-09-08T02:36:02;9.33;;;7.20;;
1026;SDS011;502;48.746;9.214;2023-09-08T02:38:30;7.33;;;6.43;;
1026;SDS011;502;48.746;9.214;2023-09-08T02:40:57;8.57;;;7.77;;
1026;SDS011;502;48.746;9.214;2023-09-08T02:43:24;7.20;;;6.30;;
1026;SDS011;502;48.746;9.214;2023-09-08T02:45:52;10.17;;;7.47;;
1026;SDS011;502;48.746;9.214;2023-09-08T02:48:19;7.93;;;7.20;;
1026;SDS011;502;48.746;9.214;2023-09-08T02:50:45;7.83;;;7.13;;
1026;SDS011;502;48.746;9.214;2023-09-08T02:53:13;8.20;;;7.30;;
1026;SDS011;502;48.746;9.214;2023-09-08T02:55:40;8.70;;;7.73;;
1026;SDS011;502;48.746;9.214;2023-09-08T02:58:06;8.37;;;7.47;;
1026;SDS011;502;48.746;9.214;2023-09-08T03:00:33;7.83;;;7.23;;
1026;SDS011;502;48.746;9.214;2023-09-08T03:02:59;8.33;;;7.53;;
1026;SDS011;502;48.746;9.214;2023-09-08T03:05:26;8.30;;;6.90;;
1026;SDS011;502;48.746;9.214;2023-09-08T03:07:53;9.20;;;8.00;;
1026;SDS011;502;48.746;9.214;2023-09-08T03:10:21;11.63;;;8.00;;
1026;SDS011;502;48.746;9.214;2023-09-08T03:12:48;8.53;;;7.73;;
1026;SDS011;502;48.746;9.214;2023-09-08T03:15:15;9.00;;;8.07;;
1026;SDS011;502;48.746;9.214;2023-09-08T03:17:42;8.63;;;7.83;;
1026;SDS011;502;48.746;9.214;2023-09-08T03:20:10;8.00;;;7.30;;
1026;SDS011;502;48.746;9.214;2023-09-08T03:22:38;9.27;;;8.37;;
1026;SDS011;502;48.746;9.214;2023-09-08T03:25:05;9.70;;;8.80;;
1026;SDS011;502;48.746;9.214;2023-09-08T03:27:37;8.93;;;8.03;;
1026;SDS011;502;48.746;9.214;2023-09-08T03:30:07;8.60;;;7.70;;
1026;SDS011;502;48.746;9.214;2023-09-08T03:32:35;9.63;;;8.03;;
1026;SDS011;502;48.746;9.214;2023-09-08T03:35:02;9.20;;;8.20;;
1026;SDS011;502;48.746;9.214;2023-09-08T03:37:31;9.83;;;8.77;;
1026;SDS011;502;48.746;9.214;2023-09-08T03:39:58;8.50;;;7.70;;
1026;SDS011;502;48.746;9.214;2023-09-08T03:42:30;9.13;;;8.20;;
1026;SDS011;502;48.746;9.214;2023-09-08T03:45:06;9.80;;;7.70;;
1026;SDS011;502;48.746;9.214;2023-09-08T03:47:34;9.20;;;8.30;;
1026;SDS011;502;48.746;9.214;2023-09-08T03:50:01;11.43;;;8.60;;
1026;SDS011;502;48.746;9.214;2023-09-08T03:52:28;9.07;;;8.10;;
1026;SDS011;502;48.746;9.214;2023-09-08T03:54:55;8.40;;;7.60;;
1026;SDS011;502;48.746;9.214;2023-09-08T03:57:24;9.33;;;8.43;;
1026;SDS011;502;48.746;9.214;2023-09-08T03:59:51;10.37;;;8.03;;
1026;SDS011;502;48.746;9.214;2023-09-08T04:02:19;8.63;;;7.63;;
1026;SDS011;502;48.746;9.214;2023-09-08T04:04:46;10.10;;;8.97;;
1026;SDS011;502;48.746;9.214;2023-09-08T04:07:15;10.60;;;9.07;;
1026;SDS011;502;48.746;9.214;2023-09-08T04:09:56;9.00;;;8.07;;
1026;SDS011;502;48.746;9.214;2023-09-08T04:12:27;9.93;;;7.97;;
1026;SDS011;502;48.746;9.214;2023-09-08T04:14:53;11.00;;;8.70;;
1026;SDS011;502;48.746;9.214;2023-09-08T04:17:21;9.73;;;8.50;;
1026;SDS011;502;48.746;9.214;2023-09-08T04:19:51;9.23;;;8.27;;
1026;SDS011;502;48.746;9.214;2023-09-08T04:22:18;9.70;;;8.60;;
1026;SDS011;502;48.746;9.214;2023-09-08T04:24:48;11.00;;;8.73;;
1026;SDS011;502;48.746;9.214;2023-09-08T04:27:18;9.90;;;8.40;;
1026;SDS011;502;48.746;9.214;2023-09-08T04:29:45;8.87;;;8.00;;
1026;SDS011;502;48.746;9.214;2023-09-08T04:32:12;8.60;;;7.80;;
1026;SDS011;502;48.746;9.214;2023-09-08T04:34:40;8.07;;;7.27;;
1026;SDS011;502;48.746;9.214;2023-09-08T04:37:10;11.47;;;8.73;;
1026;SDS011;502;48.746;9.214;2023-09-08T04:39:37;8.73;;;7.93;;
1026;SDS011;502;48.746;9.214;2023-09-08T04:42:07;9.20;;;8.30;;
1026;SDS011;502;48.746;9.214;2023-09-08T04:44:34;9.30;;;8.13;;
1026;SDS011;502;48.746;9.214;2023-09-08T04:47:01;9.37;;;7.47;;
1026;SDS011;502;48.746;9.214;2023-09-08T04:49:31;9.97;;;7.97;;
1026;SDS011;502;48.746;9.214;2023-09-08T04:52:00;8.33;;;7.20;;
1026;SDS011;502;48.746;9.214;2023-09-08T04:54:28;8.53;;;7.70;;
1026;SDS011;502;48.746;9.214;2023-09-08T04:56:56;8.70;;;7.80;;
1026;SDS011;502;48.746;9.214;2023-09-08T04:59:24;11.00;;;7.90;;
1026;SDS011;502;48.746;9.214;2023-09-08T05:01:52;8.17;;;7.37;;
1026;SDS011;502;48.746;9.214;2023-09-08T05:04:20;9.00;;;7.73;;
1026;SDS011;502;48.746;9.214;2023-09-08T05:06:47;9.00;;;8.10;;
1026;SDS011;502;48.746;9.214;2023-09-08T05:09:18;9.00;;;8.10;;
1026;SDS011;502;48.746;9.214;2023-09-08T05:11:48;9.40;;;8.00;;
1026;SDS011;502;48.746;9.214;2023-09-08T05:14:15;9.00;;;8.10;;
1026;SDS011;502;48.746;9.214;2023-09-08T05:16:42;8.73;;;7.60;;
1026;SDS011;502;48.746;9.214;2023-09-08T05:19:21;10.07;;;8.47;;
1026;SDS011;502;48.746;9.214;2023-09-08T05:21:50;10.23;;;8.47;;
1026;SDS011;502;48.746;9.214;2023-09-08T05:24:18;8.93;;;8.10;;
1026;SDS011;502;48.746;9.214;2023-09-08T05:26:49;10.20;;;9.10;;
1026;SDS011;502;48.746;9.214;2023-09-08T05:29:16;10.13;;;9.03;;
1026;SDS011;502;48.746;9.214;2023-09-08T05:31:43;10.60;;;8.60;;
1026;SDS011;502;48.746;9.214;2023-09-08T05:34:13;9.20;;;7.37;;
1026;SDS011;502;48.746;9.214;2023-09-08T05:36:46;11.97;;;9.13;;
1026;SDS011;502;48.746;9.214;2023-09-08T05:39:24;9.53;;;8.23;;
1026;SDS011;502;48.746;9.214;2023-09-08T05:41:51;8.80;;;8.00;;
1026;SDS011;502;48.746;9.214;2023-09-08T05:44:20;10.30;;;9.00;;
1026;SDS011;502;48.746;9.214;2023-09-08T05:46:50;10.73;;;8.97;;
1026;SDS011;502;48.746;9.214;2023-09-08T05:49:20;10.10;;;9.10;;
1026;SDS011;502;48.746;9.214;2023-09-08T05:51:49;9.60;;;8.67;;
1026;SDS011;502;48.746;9.214;2023-09-08T05:54:22;9.90;;;8.90;;
1026;SDS011;502;48.746;9.214;2023-09-08T05:56:50;9.60;;;8.60;;
1026;SDS011;502;48.746;9.214;2023-09-08T05:59:27;12.87;;;9.23;;
1026;SDS011;502;48.746;9.214;2023-09-08T06:01:54;11.37;;;10.17;;
1026;SDS011;502;48.746;9.214;2023-09-08T06:04:21;9.87;;;8.97;;
1026;SDS011;502;48.746;9.214;2023-09-08T06:06:48;9.77;;;8.77;;
1026;SDS011;502;48.746;9.214;2023-09-08T06:09:20;11.37;;;10.07;;
1026;SDS011;502;48.746;9.214;2023-09-08T06:11:54;11.53;;;10.17;;
1026;SDS011;502;48.746;9.214;2023-09-08T06:14:22;12.33;;;9.93;;
1026;SDS011;502;48.746;9.214;2023-09-08T06:16:50;10.67;;;9.57;;
1026;SDS011;502;48.746;9.214;2023-09-08T06:19:21;10.50;;;9.40;;
1026;SDS011;502;48.746;9.214;2023-09-08T06:21:50;11.40;;;9.80;;
1026;SDS011;502;48.746;9.214;2023-09-08T06:24:30;10.93;;;9.40;;
1026;SDS011;502;48.746;9.214;2023-09-08T06:27:00;10.77;;;9.70;;
1026;SDS011;502;48.746;9.214;2023-09-08T06:29:30;9.97;;;8.97;;
1026;SDS011;502;48.746;9.214;2023-09-08T06:31:57;10.97;;;9.87;;
1026;SDS011;502;48.746;9.214;2023-09-08T06:34:27;10.70;;;9.60;;
1026;SDS011;502;48.746;9.214;2023-09-08T06:36:57;11.00;;;10.00;;
1026;SDS011;502;48.746;9.214;2023-09-08T06:39:25;10.53;;;9.43;;
1026;SDS011;502;48.746;9.214;2023-09-08T06:42:04;8.53;;;7.73;;
1026;SDS011;502;48.746;9.214;2023-09-08T06:44:42;10.87;;;9.70;;
1026;SDS011;502;48.746;9.214;2023-09-08T06:47:16;10.03;;;9.03;;
1026;SDS011;502;48.746;9.214;2023-09-08T06:49:46;10.20;;;8.47;;
1026;SDS011;502;48.746;9.214;2023-09-08T06:52:16;8.63;;;7.83;;
1026;SDS011;502;48.746;9.214;2023-09-08T06:54:48;10.00;;;9.10;;
1026;SDS011;502;48.746;9.214;2023-09-08T06:57:17;9.20;;;8.40;;
1026;SDS011;502;48.746;9.214;2023-09-08T06:59:50;9.63;;;8.63;;
1026;SDS011;502;48.746;9.214;2023-09-08T07:02:22;10.43;;;9.43;;
1026;SDS011;502;48.746;9.214;2023-09-08T07:04:59;10.00;;;8.60;;
1026;SDS011;502;48.746;9.214;2023-09-08T07:07:38;10.27;;;8.90;;
1026;SDS011;502;48.746;9.214;2023-09-08T07:10:34;10.37;;;9.47;;
1026;SDS011;502;48.746;9.214;2023-09-08T07:13:15;10.57;;;9.60;;
1026;SDS011;502;48.746;9.214;2023-09-08T07:15:50;10.60;;;9.70;;
1026;SDS011;502;48.746;9.214;2023-09-08T07:18:25;9.83;;;8.83;;
1026;SDS011;502;48.746;9.214;2023-09-08T07:21:02;10.37;;;8.53;;
1026;SDS011;502;48.746;9.214;2023-09-08T07:23:29;9.53;;;8.63;;
1026;SDS011;502;48.746;9.214;2023-09-08T07:25:58;10.07;;;9.17;;
1026;SDS011;502;48.746;9.214;2023-09-08T07:28:38;10.47;;;9.47;;
1026;SDS011;502;48.746;9.214;2023-09-08T07:31:13;14.50;;;9.93;;
1026;SDS011;502;48.746;9.214;2023-09-08T07:33:46;10.70;;;8.90;;
1026;SDS011;502;48.746;9.214;2023-09-08T07:36:13;14.73;;;9.33;;
1026;SDS011;502;48.746;9.214;2023-09-08T07:38:43;9.63;;;8.63;;
1026;SDS011;502;48.746;9.214;2023-09-08T07:41:23;9.53;;;8.60;;
1026;SDS011;502;48.746;9.214;2023-09-08T07:43:54;10.07;;;8.93;;
1026;SDS011;502;48.746;9.214;2023-09-08T07:46:27;9.80;;;8.90;;
1026;SDS011;502;48.746;9.214;2023-09-08T07:48:55;9.70;;;8.80;;
1026;SDS011;502;48.746;9.214;2023-09-08T07:51:22;10.17;;;9.17;;
1026;SDS011;502;48.746;9.214;2023-09-08T07:53:49;11.37;;;9.30;;
1026;SDS011;502;48.746;9.214;2023-09-08T07:56:16;9.70;;;8.80;;
1026;SDS011;502;48.746;9.214;2023-09-08T07:58:45;9.60;;;8.70;;
1026;SDS011;502;48.746;9.214;2023-09-08T08:01:16;12.13;;;9.27;;
1026;SDS011;502;48.746;9.214;2023-09-08T08:03:43;9.07;;;8.17;;
1026;SDS011;502;48.746;9.214;2023-09-08T08:06:14;9.07;;;8.27;;
1026;SDS011;502;48.746;9.214;2023-09-08T08:08:44;9.80;;;8.77;;
1026;SDS011;502;48.746;9.214;2023-09-08T08:11:11;10.17;;;9.27;;
1026;SDS011;502;48.746;9.214;2023-09-08T08:13:38;9.47;;;8.67;;
1026;SDS011;502;48.746;9.214;2023-09-08T08:16:05;9.37;;;8.47;;
1026;SDS011;502;48.746;9.214;2023-09-08T08:18:43;9.00;;;8.20;;
1026;SDS011;502;48.746;9.214;2023-09-08T08:21:12;12.00;;;8.10;;
1026;SDS011;502;48.746;9.214;2023-09-08T08:23:39;9.80;;;8.87;;
1026;SDS011;502;48.746;9.214;2023-09-08T08:26:08;9.13;;;8.37;;
1026;SDS011;502;48.746;9.214;2023-09-08T08:28:42;8.57;;;7.87;;
1026;SDS011;502;48.746;9.214;2023-09-08T08:31:12;9.17;;;8.27;;
1026;SDS011;502;48.746;9.214;2023-09-08T08:33:39;8.70;;;7.93;;
1026;SDS011;502;48.746;9.214;2023-09-08T08:36:07;8.27;;;7.57;;
1026;SDS011;502;48.746;9.214;2023-09-08T08:38:35;8.53;;;7.73;;
1026;SDS011;502;48.746;9.214;2023-09-08T08:41:05;9.23;;;8.33;;
1026;SDS011;502;48.746;9.214;2023-09-08T08:43:38;9.00;;;7.87;;
1026;SDS011;502;48.746;9.214;2023-09-08T08:46:08;9.03;;;8.13;;
1026;SDS011;502;48.746;9.214;2023-09-08T08:48:37;9.20;;;8.40;;
1026;SDS011;502;48.746;9.214;2023-09-08T08:51:04;8.90;;;8.10;;
1026;SDS011;502;48.746;9.214;2023-09-08T08:53:33;8.47;;;7.67;;
1026;SDS011;502;48.746;9.214;2023-09-08T08:56:09;8.33;;;7.53;;
1026;SDS011;502;48.746;9.214;2023-09-08T08:58:36;10.07;;;9.23;;
1026;SDS011;502;48.746;9.214;2023-09-08T09:01:03;10.47;;;9.47;;
1026;SDS011;502;48.746;9.214;2023-09-08T09:03:30;8.50;;;7.70;;
1026;SDS011;502;48.746;9.214;2023-09-08T09:05:58;8.37;;;7.67;;
1026;SDS011;502;48.746;9.214;2023-09-08T09:08:25;9.40;;;8.60;;
1026;SDS011;502;48.746;9.214;2023-09-08T09:10:54;14.90;;;9.23;;
1026;SDS011;502;48.746;9.214;2023-09-08T09:13:21;9.70;;;7.70;;
1026;SDS011;502;48.746;9.214;2023-09-08T09:15:48;9.27;;;7.60;;
1026;SDS011;502;48.746;9.214;2023-09-08T09:18:15;9.07;;;8.27;;
1026;SDS011;502;48.746;9.214;2023-09-08T09:20:43;9.20;;;8.40;;
1026;SDS011;502;48.746;9.214;2023-09-08T09:23:26;9.00;;;8.10;;
1026;SDS011;502;48.746;9.214;2023-09-08T09:25:54;9.10;;;8.23;;
1026;SDS011;502;48.746;9.214;2023-09-08T09:28:21;9.43;;;8.43;;
1026;SDS011;502;48.746;9.214;2023-09-08T09:30:48;8.83;;;8.03;;
1026;SDS011;502;48.746;9.214;2023-09-08T09:33:16;9.20;;;8.30;;
1026;SDS011;502;48.746;9.214;2023-09-08T09:35:44;9.20;;;8.40;;
1026;SDS011;502;48.746;9.214;2023-09-08T09:38:12;8.87;;;8.00;;
1026;SDS011;502;48.746;9.214;2023-09-08T09:40:39;9.23;;;8.30;;
1026;SDS011;502;48.746;9.214;2023-09-08T09:43:07;8.93;;;8.13;;
1026;SDS011;502;48.746;9.214;2023-09-08T09:45:35;8.57;;;7.83;;
1026;SDS011;502;48.746;9.214;2023-09-08T09:48:02;11.40;;;9.17;;
1026;SDS011;502;48.746;9.214;2023-09-08T09:50:30;9.37;;;8.47;;
1026;SDS011;502;48.746;9.214;2023-09-08T09:52:58;8.50;;;7.70;;
1026;SDS011;502;48.746;9.214;2023-09-08T09:55:26;8.53;;;7.73;;
1026;SDS011;502;48.746;9.214;2023-09-08T09:57:55;10.20;;;9.20;;
1026;SDS011;502;48.746;9.214;2023-09-08T10:00:25;12.20;;;8.57;;
1026;SDS011;502;48.746;9.214;2023-09-08T10:02:52;9.57;;;8.67;;
1026;SDS011;502;48.746;9.214;2023-09-08T10:05:19;8.87;;;8.13;;
1026;SDS011;502;48.746;9.214;2023-09-08T10:07:46;9.43;;;8.53;;
1026;SDS011;502;48.746;9.214;2023-09-08T10:10:13;9.97;;;8.97;;
1026;SDS011;502;48.746;9.214;2023-09-08T10:12:41;9.60;;;8.70;;
1026;SDS011;502;48.746;9.214;2023-09-08T10:15:10;9.33;;;8.47;;
1026;SDS011;502;48.746;9.214;2023-09-08T10:17:38;12.37;;;9.33;;
1026;SDS011;502;48.746;9.214;2023-09-08T10:20:07;9.27;;;8.37;;
1026;SDS011;502;48.746;9.214;2023-09-08T10:22:38;9.23;;;8.43;;
1026;SDS011;502;48.746;9.214;2023-09-08T10:25:06;9.20;;;8.20;;
1026;SDS011;502;48.746;9.214;2023-09-08T10:27:34;10.07;;;9.07;;
1026;SDS011;502;48.746;9.214;2023-09-08T10:30:02;14.57;;;8.27;;
1026;SDS011;502;48.746;9.214;2023-09-08T10:32:30;12.33;;;8.23;;
1026;SDS011;502;48.746;9.214;2023-09-08T10:34:59;9.40;;;8.40;;
1026;SDS011;502;48.746;9.214;2023-09-08T10:37:26;11.27;;;8.50;;
1026;SDS011;502;48.746;9.214;2023-09-08T10:39:54;9.50;;;8.37;;
1026;SDS011;502;48.746;9.214;2023-09-08T10:42:25;9.57;;;8.67;;
1026;SDS011;502;48.746;9.214;2023-09-08T10:44:57;8.57;;;7.70;;
1026;SDS011;502;48.746;9.214;2023-09-08T10:47:30;8.80;;;8.03;;
1026;SDS011;502;48.746;9.214;2023-09-08T10:50:00;8.53;;;7.63;;
1026;SDS011;502;48.746;9.214;2023-09-08T10:52:29;9.53;;;8.73;;
1026;SDS011;502;48.746;9.214;2023-09-08T10:54:58;9.37;;;8.47;;
1026;SDS011;502;48.746;9.214;2023-09-08T10:57:25;9.37;;;8.40;;
1026;SDS011;502;48.746;9.214;2023-09-08T10:59:51;9.80;;;8.90;;
1026;SDS011;502;48.746;9.214;2023-09-08T11:02:32;10.50;;;9.60;;
1026;SDS011;502;48.746;9.214;2023-09-08T11:05:02;8.87;;;8.17;;
1026;SDS011;502;48.746;9.214;2023-09-08T11:07:30;10.10;;;9.10;;
1026;SDS011;502;48.746;9.214;2023-09-08T11:09:57;9.10;;;8.30;;
1026;SDS011;502;48.746;9.214;2023-09-08T11:12:25;8.13;;;7.43;;
1026;SDS011;502;48.746;9.214;2023-09-08T11:14:52;10.80;;;8.93;;
1026;SDS011;502;48.746;9.214;2023-09-08T11:17:19;9.13;;;8.33;;
1026;SDS011;502;48.746;9.214;2023-09-08T11:19:46;9.30;;;8.50;;
1026;SDS011;502;48.746;9.214;2023-09-08T11:22:15;10.53;;;8.87;;
1026;SDS011;502;48.746;9.214;2023-09-08T11:24:42;9.47;;;8.50;;
1026;SDS011;502;48.746;9.214;2023-09-08T11:27:09;9.47;;;8.67;;
1026;SDS011;502;48.746;9.214;2023-09-08T11:29:36;10.60;;;9.50;;
1026;SDS011;502;48.746;9.214;2023-09-08T11:32:06;9.63;;;8.20;;
1026;SDS011;502;48.746;9.214;2023-09-08T11:34:33;8.47;;;7.80;;
1026;SDS011;502;48.746;9.214;2023-09-08T11:37:00;9.10;;;8.30;;
1026;SDS011;502;48.746;9.214;2023-09-08T11:39:28;8.70;;;7.90;;
1026;SDS011;502;48.746;9.214;2023-09-08T11:41:55;8.90;;;8.20;;
1026;SDS011;502;48.746;9.214;2023-09-08T11:44:22;8.60;;;7.80;;
1026;SDS011;502;48.746;9.214;2023-09-08T11:46:49;9.37;;;8.40;;
1026;SDS011;502;48.746;9.214;2023-09-08T11:49:18;8.87;;;8.07;;
1026;SDS011;502;48.746;9.214;2023-09-08T11:51:45;8.47;;;7.67;;
1026;SDS011;502;48.746;9.214;2023-09-08T11:54:12;9.37;;;8.57;;
1026;SDS011;502;48.746;9.214;2023-09-08T11:56:40;8.40;;;7.60;;
1026;SDS011;502;48.746;9.214;2023-09-08T11:59:06;9.40;;;8.60;;
1026;SDS011;502;48.746;9.214;2023-09-08T12:01:34;9.77;;;8.90;;
1026;SDS011;502;48.746;9.214;2023-09-08T12:04:00;9.20;;;8.27;;
1026;SDS011;502;48.746;9.214;2023-09-08T12:06:27;9.53;;;8.73;;
1026;SDS011;502;48.746;9.214;2023-09-08T12:08:54;9.80;;;9.00;;
1026;SDS011;502;48.746;9.214;2023-09-08T12:11:21;9.20;;;8.50;;
1026;SDS011;502;48.746;9.214;2023-09-08T12:13:49;10.10;;;8.00;;
1026;SDS011;502;48.746;9.214;2023-09-08T12:16:19;10.10;;;8.33;;
1026;SDS011;502;48.746;9.214;2023-09-08T12:18:48;8.90;;;8.07;;
1026;SDS011;502;48.746;9.214;2023-09-08T12:21:15;9.57;;;8.37;;
1026;SDS011;502;48.746;9.214;2023-09-08T12:23:49;9.33;;;8.30;;
1026;SDS011;502;48.746;9.214;2023-09-08T12:26:16;9.63;;;8.63;;
1026;SDS011;502;48.746;9.214;2023-09-08T12:28:43;10.13;;;9.23;;
1026;SDS011;502;48.746;9.214;2023-09-08T12:31:11;9.80;;;8.90;;
1026;SDS011;502;48.746;9.214;2023-09-08T12:33:39;9.40;;;8.53;;
1026;SDS011;502;48.746;9.214;2023-09-08T12:36:12;9.70;;;8.60;;
1026;SDS011;502;48.746;9.214;2023-09-08T12:38:39;9.70;;;8.80;;
1026;SDS011;502;48.746;9.214;2023-09-08T12:41:12;9.90;;;8.90;;
1026;SDS011;502;48.746;9.214;2023-09-08T12:43:39;9.40;;;8.60;;
1026;SDS011;502;48.746;9.214;2023-09-08T12:46:06;11.63;;;10.43;;
1026;SDS011;502;48.746;9.214;2023-09-08T12:48:34;10.40;;;9.50;;
1026;SDS011;502;48.746;9.214;2023-09-08T12:51:01;9.40;;;8.60;;
1026;SDS011;502;48.746;9.214;2023-09-08T12:53:29;10.10;;;9.30;;
1026;SDS011;502;48.746;9.214;2023-09-08T12:55:59;10.03;;;9.13;;
1026;SDS011;502;48.746;9.214;2023-09-08T12:58:26;10.10;;;9.30;;
1026;SDS011;502;48.746;9.214;2023-09-08T13:00:54;9.60;;;8.70;;
1026;SDS011;502;48.746;9.214;2023-09-08T13:03:21;9.57;;;8.60;;
1026;SDS011;502;48.746;9.214;2023-09-08T13:05:49;10.50;;;9.50;;
1026;SDS011;502;48.746;9.214;2023-09-08T13:08:16;10.20;;;9.17;;
1026;SDS011;502;48.746;9.214;2023-09-08T13:10:42;9.37;;;8.40;;
1026;SDS011;502;48.746;9.214;2023-09-08T13:13:09;10.00;;;9.20;;
1026;SDS011;502;48.746;9.214;2023-09-08T13:15:36;9.80;;;8.80;;
1026;SDS011;502;48.746;9.214;2023-09-08T13:18:02;9.93;;;9.00;;
1026;SDS011;502;48.746;9.214;2023-09-08T13:20:29;9.83;;;8.20;;
1026;SDS011;502;48.746;9.214;2023-09-08T13:22:57;10.20;;;9.30;;
1026;SDS011;502;48.746;9.214;2023-09-08T13:25:24;13.27;;;8.50;;
1026;SDS011;502;48.746;9.214;2023-09-08T13:27:53;9.97;;;9.10;;
1026;SDS011;502;48.746;9.214;2023-09-08T13:30:19;9.50;;;8.70;;
1026;SDS011;502;48.746;9.214;2023-09-08T13:32:51;9.53;;;8.70;;
1026;SDS011;502;48.746;9.214;2023-09-08T13:35:18;9.40;;;8.60;;
1026;SDS011;502;48.746;9.214;2023-09-08T13:37:45;9.07;;;8.20;;
1026;SDS011;502;48.746;9.214;2023-09-08T13:40:13;9.53;;;8.73;;
1026;SDS011;502;48.746;9.214;2023-09-08T13:42:40;9.63;;;8.83;;
1026;SDS011;502;48.746;9.214;2023-09-08T13:45:07;9.20;;;8.40;;
1026;SDS011;502;48.746;9.214;2023-09-08T13:47:37;9.30;;;8.40;;
1026;SDS011;502;48.746;9.214;2023-09-08T13:50:04;8.83;;;8.03;;
1026;SDS011;502;48.746;9.214;2023-09-08T13:52:32;8.80;;;8.00;;
1026;SDS011;502;48.746;9.214;2023-09-08T13:54:59;9.13;;;8.10;;
1026;SDS011;502;48.746;9.214;2023-09-08T13:57:27;8.97;;;8.23;;
1026;SDS011;502;48.746;9.214;2023-09-08T13:59:58;9.80;;;8.20;;
1026;SDS011;502;48.746;9.214;2023-09-08T14:02:24;8.03;;;7.33;;
1026;SDS011;502;48.746;9.214;2023-09-08T14:04:51;8.57;;;7.87;;
1026;SDS011;502;48.746;9.214;2023-09-08T14:07:18;8.60;;;7.80;;
1026;SDS011;502;48.746;9.214;2023-09-08T14:09:44;8.70;;;7.90;;
1026;SDS011;502;48.746;9.214;2023-09-08T14:12:11;7.70;;;7.10;;
1026;SDS011;502;48.746;9.214;2023-09-08T14:14:39;9.03;;;7.73;;
1026;SDS011;502;48.746;9.214;2023-09-08T14:17:11;8.57;;;7.77;;
1026;SDS011;502;48.746;9.214;2023-09-08T14:19:37;8.80;;;7.90;;
1026;SDS011;502;48.746;9.214;2023-09-08T14:22:07;9.20;;;8.50;;
1026;SDS011;502;48.746;9.214;2023-09-08T14:24:34;14.00;;;8.13;;
1026;SDS011;502;48.746;9.214;2023-09-08T14:27:00;11.93;;;7.53;;
1026;SDS011;502;48.746;9.214;2023-09-08T14:29:29;8.50;;;7.80;;
1026;SDS011;502;48.746;9.214;2023-09-08T14:31:56;8.67;;;7.87;;
1026;SDS011;502;48.746;9.214;2023-09-08T14:34:27;9.90;;;7.17;;
1026;SDS011;502;48.746;9.214;2023-09-08T14:36:54;8.33;;;7.53;;
1026;SDS011;502;48.746;9.214;2023-09-08T14:39:21;8.17;;;7.50;;
1026;SDS011;502;48.746;9.214;2023-09-08T14:41:48;8.80;;;8.00;;
1026;SDS011;502;48.746;9.214;2023-09-08T14:44:15;8.50;;;7.60;;
1026;SDS011;502;48.746;9.214;2023-09-08T14:46:42;7.73;;;7.03;;
1026;SDS011;502;48.746;9.214;2023-09-08T14:49:10;7.47;;;6.77;;
1026;SDS011;502;48.746;9.214;2023-09-08T14:51:54;8.97;;;8.13;;
1026;SDS011;502;48.746;9.214;2023-09-08T14:54:21;7.60;;;6.90;;
1026;SDS011;502;48.746;9.214;2023-09-08T14:56:47;7.73;;;7.03;;
1026;SDS011;502;48.746;9.214;2023-09-08T14:59:14;9.93;;;7.73;;
1026;SDS011;502;48.746;9.214;2023-09-08T15:01:40;7.63;;;6.93;;
1026;SDS011;502;48.746;9.214;2023-09-08T15:04:11;7.77;;;7.07;;
1026;SDS011;502;48.746;9.214;2023-09-08T15:06:37;8.00;;;7.20;;
1026;SDS011;502;48.746;9.214;2023-09-08T15:09:04;7.40;;;6.80;;
1026;SDS011;502;48.746;9.214;2023-09-08T15:11:31;7.50;;;6.90;;
1026;SDS011;502;48.746;9.214;2023-09-08T15:13:58;8.53;;;7.80;;
1026;SDS011;502;48.746;9.214;2023-09-08T15:16:24;8.00;;;7.20;;
1026;SDS011;502;48.746;9.214;2023-09-08T15:18:51;7.50;;;6.80;;
1026;SDS011;502;48.746;9.214;2023-09-08T15:21:19;7.60;;;6.90;;
1026;SDS011;502;48.746;9.214;2023-09-08T15:23:50;9.13;;;6.53;;
1026;SDS011;502;48.746;9.214;2023-09-08T15:26:17;9.10;;;6.80;;
1026;SDS011;502;48.746;9.214;2023-09-08T15:28:44;7.57;;;6.97;;
1026;SDS011;502;48.746;9.214;2023-09-08T15:31:10;6.77;;;6.10;;
1026;SDS011;502;48.746;9.214;2023-09-08T15:33:37;8.27;;;7.43;;
1026;SDS011;502;48.746;9.214;2023-09-08T15:36:04;8.13;;;7.33;;